首页
METAR-TAF:

METAR-TAF

机场 :

迪奥里·哈马尼国际机场

尼亞美, 尼日尔

纬度: 13-29N, 经度: 002-10E, 海拔: 223米

当前天气观测

该预报发布于33分钟前的09:00 UTC
风速6节,风向西南,在西之间变化
温度 29°C
湿度 74%
气压 1014 hPa
能见度10公里或以上
少量云层高于1600英尺

METAR: DRRN 190900Z 23006KT 190V260 9999 FEW016 29/24 Q1014 NOSIG

时间: 10:33 (09:33 UTC)

预报

该预报发布于4小时和33分钟前的05:00 UTC
预报有效从19日的 06点(UTC)到 20日的 12点(UTC)
风速6节,风向西转西南
能见度10公里或以上
少量云层高于2000英尺
几率 30% :
短暂存在
从 19日的 14点(UTC)到 19日的 20点(UTC)
散云层高于2000英尺
少量云层高于2600英尺, 积雨云.
雷暴

TAF: DRRN 190500Z 1906/2012 24006KT 9999 FEW020 PROB30 TEMPO 1914/1920 TS SCT020 FEW026CB

超过4000个机场的气象观测和天气预报(METAR&TAF报告)。

可查询的气象台以黄色和红色小点在地图上表示。

将鼠标移到小点上方,可查看气象台名称。

然后点击查看天气观测和预报。

如需切换地图:点击带黑十字的绿色按钮放大地图;点击带横线的绿色按钮缩小地图;或者点击绿色箭头查看邻近地区的地图。


METAR-TAF: